Time;durP1;ratioP1;P1;durP2;ratioP2;P2;SDS_P1;SDS_P2;PMS_P1;PMS_P2;Temp;Humidity;BMP_temperature;BMP_pressure;BME280_temperature;BME280_humidity;BME280_pressure;Samples;Min_cycle;Max_cycle;Signal;HPM_P1;HPM_P2
2021/01/08 00:00:51;;;;;;;7.40;5.93;;;1.40;99.90;;;;;;5025659;28;20176;-53
2021/01/08 00:03:17;;;;;;;8.77;5.50;;;1.40;99.90;;;;;;5010337;28;20278;-48
2021/01/08 00:05:42;;;;;;;7.17;5.00;;;1.40;99.90;;;;;;5026486;28;20636;-47
2021/01/08 00:08:08;;;;;;;7.87;5.50;;;1.40;99.90;;;;;;5023034;28;20198;-54
2021/01/08 00:10:33;;;;;;;6.57;5.53;;;1.40;99.90;;;;;;5025958;28;20543;-45
2021/01/08 00:12:59;;;;;;;8.83;5.23;;;1.40;99.90;;;;;;5024687;28;20238;-53
2021/01/08 00:15:24;;;;;;;7.43;5.13;;;1.40;99.90;;;;;;5023923;28;20203;-44
2021/01/08 00:17:50;;;;;;;8.10;5.47;;;1.50;99.90;;;;;;5025683;28;20257;-50
2021/01/08 00:20:16;;;;;;;5.60;4.73;;;1.40;99.90;;;;;;5011331;28;20214;-47
2021/01/08 00:22:41;;;;;;;6.30;4.87;;;1.50;99.90;;;;;;5027442;28;20196;-46
2021/01/08 00:25:07;;;;;;;5.30;4.73;;;1.50;99.90;;;;;;5024074;28;20172;-49
2021/01/08 00:27:33;;;;;;;6.27;4.60;;;1.50;99.90;;;;;;5027190;28;20791;-49
2021/01/08 00:29:58;;;;;;;6.63;4.60;;;1.50;99.90;;;;;;5025622;28;20195;-49
2021/01/08 00:32:24;;;;;;;5.00;4.50;;;1.50;99.90;;;;;;5024746;28;20278;-48
2021/01/08 00:34:49;;;;;;;5.63;4.03;;;1.40;99.90;;;;;;5014333;28;20258;-47
2021/01/08 00:37:15;;;;;;;4.20;3.77;;;1.50;99.90;;;;;;5024021;28;20176;-48
2021/01/08 00:39:41;;;;;;;4.83;3.80;;;1.40;99.90;;;;;;5027102;28;20176;-53
2021/01/08 00:42:08;;;;;;;4.10;3.70;;;1.50;99.90;;;;;;5023934;28;20220;-45
2021/01/08 00:44:33;;;;;;;3.77;3.43;;;1.50;99.90;;;;;;5026975;28;20281;-53
2021/01/08 00:46:59;;;;;;;6.47;3.63;;;1.40;99.90;;;;;;5025466;28;20200;-45
2021/01/08 00:49:25;;;;;;;5.27;3.80;;;1.40;99.90;;;;;;5012906;28;24396;-52
2021/01/08 00:51:52;;;;;;;5.60;3.20;;;1.40;99.90;;;;;;5026265;28;20206;-49
2021/01/08 00:54:18;;;;;;;3.47;3.07;;;1.40;99.90;;;;;;5023212;28;20203;-48
2021/01/08 00:56:43;;;;;;;5.80;3.10;;;1.40;99.90;;;;;;5026955;28;20222;-51
2021/01/08 00:59:08;;;;;;;3.87;3.07;;;1.40;99.90;;;;;;5022549;28;20179;-46
2021/01/08 01:01:34;;;;;;;3.93;3.10;;;1.40;99.90;;;;;;5027162;28;20286;-48
2021/01/08 01:04:00;;;;;;;3.73;2.97;;;1.40;99.90;;;;;;5024553;28;20672;-50
2021/01/08 01:06:31;;;;;;;3.77;2.60;;;1.40;99.90;;;;;;5012716;28;20191;-51
2021/01/08 01:08:57;;;;;;;3.27;2.97;;;1.40;99.90;;;;;;5025211;28;20245;-48
2021/01/08 01:11:25;;;;;;;3.63;3.17;;;1.40;99.90;;;;;;5024549;28;20270;-50
2021/01/08 01:13:52;;;;;;;3.20;2.90;;;1.40;99.90;;;;;;5026729;28;20210;-44
2021/01/08 01:16:19;;;;;;;3.67;3.20;;;1.40;99.90;;;;;;5023031;28;20178;-50
2021/01/08 01:18:46;;;;;;;3.03;2.73;;;1.30;99.90;;;;;;5026416;28;20200;-48
2021/01/08 01:21:12;;;;;;;2.93;2.57;;;1.30;99.90;;;;;;5010170;28;20200;-53
2021/01/08 01:23:37;;;;;;;3.10;2.80;;;1.30;99.90;;;;;;5026841;28;20179;-49
2021/01/08 01:26:04;;;;;;;5.20;2.97;;;1.30;99.90;;;;;;5023482;28;20271;-45
2021/01/08 01:28:30;;;;;;;3.90;3.20;;;1.30;99.90;;;;;;5025355;28;20203;-49
2021/01/08 01:30:55;;;;;;;3.90;3.20;;;1.30;99.90;;;;;;5025029;28;20545;-49
2021/01/08 01:33:21;;;;;;;3.57;3.00;;;1.30;99.90;;;;;;5024006;28;20291;-51
2021/01/08 01:35:46;;;;;;;4.00;3.03;;;1.30;99.90;;;;;;5026524;28;20175;-51
2021/01/08 01:38:12;;;;;;;3.40;3.03;;;1.30;99.90;;;;;;5010418;28;20267;-49
2021/01/08 01:40:37;;;;;;;4.10;2.73;;;1.30;99.90;;;;;;5025750;28;20179;-51
2021/01/08 01:43:03;;;;;;;4.73;3.30;;;1.30;99.90;;;;;;5024039;28;20257;-46
2021/01/08 01:45:28;;;;;;;3.83;3.43;;;1.30;99.90;;;;;;5024908;28;20189;-50
2021/01/08 01:47:54;;;;;;;4.43;3.53;;;1.30;99.90;;;;;;5025373;28;20183;-46
2021/01/08 01:50:20;;;;;;;4.57;3.80;;;1.30;99.90;;;;;;5023226;28;20652;-48
2021/01/08 01:52:46;;;;;;;6.10;4.30;;;1.20;99.90;;;;;;5026564;28;20207;-53
2021/01/08 01:55:13;;;;;;;4.37;3.93;;;1.20;99.90;;;;;;5009701;28;20184;-51
2021/01/08 01:57:38;;;;;;;4.87;4.00;;;1.20;99.90;;;;;;5026253;28;20171;-52
2021/01/08 02:00:06;;;;;;;4.53;4.03;;;1.30;99.90;;;;;;5023134;28;20191;-47
2021/01/08 02:02:52;;;;;;;4.57;4.00;;;1.30;99.90;;;;;;5025558;28;20646;-50
2021/01/08 02:05:19;;;;;;;4.83;4.10;;;1.30;99.90;;;;;;5022851;28;20974;-51
2021/01/08 02:08:10;;;;;;;4.77;4.03;;;1.30;99.90;;;;;;5026481;28;20176;-49
2021/01/08 02:11:10;;;;;;;5.10;4.03;;;1.30;99.90;;;;;;5013745;28;20199;-51
2021/01/08 02:13:46;;;;;;;5.03;4.10;;;1.30;99.90;;;;;;4993048;28;20214;-50
2021/01/08 02:16:12;;;;;;;6.67;4.03;;;1.30;99.90;;;;;;5022261;28;20194;-53
2021/01/08 02:18:39;;;;;;;5.13;4.17;;;1.30;99.90;;;;;;5025701;28;20186;-48
2021/01/08 02:21:10;;;;;;;5.43;4.23;;;1.30;99.90;;;;;;5023059;28;20192;-47
2021/01/08 02:23:50;;;;;;;5.60;4.53;;;1.30;99.90;;;;;;5025075;28;20669;-47
2021/01/08 02:26:18;;;;;;;4.97;3.90;;;1.30;99.90;;;;;;5009432;28;20273;-52
2021/01/08 02:28:45;;;;;;;5.37;4.30;;;1.30;99.90;;;;;;5024443;28;20187;-48
2021/01/08 02:31:11;;;;;;;5.93;4.60;;;1.30;99.90;;;;;;5019935;28;20264;-48
2021/01/08 02:33:37;;;;;;;4.53;3.73;;;1.30;99.90;;;;;;5024583;28;20253;-48
2021/01/08 02:36:03;;;;;;;5.37;4.40;;;1.30;99.90;;;;;;5020596;28;20183;-46
2021/01/08 02:38:30;;;;;;;6.33;4.80;;;1.30;99.90;;;;;;5023022;28;20177;-50
2021/01/08 02:40:56;;;;;;;5.90;4.63;;;1.30;99.90;;;;;;5010699;28;20206;-47
2021/01/08 02:43:23;;;;;;;6.83;4.50;;;1.30;99.90;;;;;;5021630;28;20919;-49
2021/01/08 02:45:50;;;;;;;8.20;4.47;;;1.30;99.90;;;;;;5024349;28;20202;-50
2021/01/08 02:48:16;;;;;;;6.17;4.23;;;1.30;99.90;;;;;;5020898;28;20362;-51
2021/01/08 02:50:42;;;;;;;6.97;4.40;;;1.30;99.90;;;;;;5023894;28;20183;-49
2021/01/08 02:53:12;;;;;;;5.43;4.33;;;1.30;99.90;;;;;;5020480;28;20340;-47
2021/01/08 02:55:39;;;;;;;5.77;4.20;;;1.20;99.90;;;;;;5012110;28;20184;-47
2021/01/08 02:58:06;;;;;;;5.07;4.57;;;1.20;99.90;;;;;;5020349;28;20169;-45
2021/01/08 03:00:33;;;;;;;5.37;4.27;;;1.20;99.90;;;;;;5021889;28;20527;-48
2021/01/08 03:03:00;;;;;;;5.03;3.73;;;1.20;99.90;;;;;;5022532;28;20194;-47
2021/01/08 03:05:27;;;;;;;5.23;4.37;;;1.20;99.90;;;;;;5021908;28;20179;-48
2021/01/08 03:07:54;;;;;;;5.63;4.47;;;1.20;99.90;;;;;;5023116;28;20262;-47
2021/01/08 03:10:19;;;;;;;6.43;4.20;;;1.20;99.90;;;;;;5008459;28;20330;-48
2021/01/08 03:12:55;;;;;;;5.93;4.53;;;1.20;99.90;;;;;;5023761;28;20278;-45
2021/01/08 03:15:21;;;;;;;5.27;3.63;;;1.20;99.90;;;;;;5020785;28;20434;-50
2021/01/08 03:17:46;;;;;;;6.70;4.33;;;1.20;99.90;;;;;;5023882;28;20220;-50
2021/01/08 03:20:12;;;;;;;5.60;4.10;;;1.20;99.90;;;;;;5019795;28;20167;-48
2021/01/08 03:22:38;;;;;;;7.40;5.27;;;1.20;99.90;;;;;;5022623;28;20701;-48
2021/01/08 03:25:04;;;;;;;8.43;4.50;;;1.20;99.90;;;;;;5021415;28;20603;-47
2021/01/08 03:27:29;;;;;;;5.27;4.03;;;1.20;99.90;;;;;;5014603;28;20195;-47
2021/01/08 03:29:54;;;;;;;6.83;3.90;;;1.20;99.90;;;;;;5026700;28;20186;-45
2021/01/08 03:32:20;;;;;;;6.57;4.93;;;1.20;99.90;;;;;;5024208;28;20234;-47
2021/01/08 03:34:45;;;;;;;5.43;4.40;;;1.20;99.90;;;;;;5027101;28;20698;-53
2021/01/08 03:37:11;;;;;;;6.07;4.43;;;1.20;99.90;;;;;;5023532;28;20916;-48
2021/01/08 03:39:36;;;;;;;6.53;4.40;;;1.20;99.90;;;;;;5026441;28;20258;-47
2021/01/08 03:42:02;;;;;;;5.73;4.10;;;1.20;99.90;;;;;;5017261;28;20199;-44
2021/01/08 03:44:28;;;;;;;5.70;4.40;;;1.20;99.90;;;;;;5021421;28;20352;-48
2021/01/08 03:46:53;;;;;;;6.53;4.67;;;1.20;99.90;;;;;;5026583;28;20183;-45
2021/01/08 03:49:19;;;;;;;5.70;4.47;;;1.20;99.90;;;;;;5024110;28;20175;-46
2021/01/08 03:51:44;;;;;;;7.30;4.10;;;1.20;99.90;;;;;;5027269;28;20198;-46
2021/01/08 03:54:10;;;;;;;7.27;4.67;;;1.20;99.90;;;;;;5022374;28;20309;-45
2021/01/08 03:56:35;;;;;;;6.37;4.27;;;1.20;99.90;;;;;;5027156;28;20267;-48
2021/01/08 03:59:00;;;;;;;6.97;4.43;;;1.20;99.90;;;;;;5012162;28;20199;-44
2021/01/08 04:01:26;;;;;;;7.00;5.13;;;1.20;99.90;;;;;;5025182;28;20813;-48
2021/01/08 04:03:51;;;;;;;6.50;4.70;;;1.20;99.90;;;;;;5026486;28;20176;-45
2021/01/08 04:06:17;;;;;;;7.00;5.10;;;1.20;99.90;;;;;;5023573;28;20937;-47
2021/01/08 04:08:42;;;;;;;8.53;4.97;;;1.20;99.90;;;;;;5026105;28;20249;-46
2021/01/08 04:11:08;;;;;;;6.40;4.90;;;1.20;99.90;;;;;;5022748;28;20200;-44
2021/01/08 04:13:33;;;;;;;6.60;4.90;;;1.20;99.90;;;;;;5014262;28;20299;-49
2021/01/08 04:15:59;;;;;;;10.27;6.37;;;1.20;99.90;;;;;;5024194;28;20206;-48
2021/01/08 04:18:24;;;;;;;7.27;5.13;;;1.20;99.90;;;;;;5025417;28;20195;-48
2021/01/08 04:20:49;;;;;;;11.07;5.90;;;1.30;99.90;;;;;;5027251;28;20554;-45
2021/01/08 04:23:16;;;;;;;10.60;6.20;;;1.20;99.90;;;;;;5023288;28;20281;-48
2021/01/08 04:25:41;;;;;;;10.67;6.30;;;1.20;99.90;;;;;;5027594;28;20191;-50
2021/01/08 04:28:07;;;;;;;15.53;7.47;;;1.20;99.90;;;;;;5024063;28;20181;-44
2021/01/08 04:30:32;;;;;;;8.93;5.63;;;1.20;99.90;;;;;;5014018;28;20209;-48
2021/01/08 04:32:58;;;;;;;6.87;5.17;;;1.20;99.90;;;;;;5025221;28;20273;-46
2021/01/08 04:35:23;;;;;;;11.77;7.10;;;1.20;99.90;;;;;;5024399;28;20179;-47
2021/01/08 04:37:49;;;;;;;9.40;6.20;;;1.10;99.90;;;;;;5026047;28;20191;-47
2021/01/08 04:40:14;;;;;;;10.80;6.50;;;1.20;99.90;;;;;;5022676;28;20179;-46
2021/01/08 04:42:40;;;;;;;9.60;6.20;;;1.20;99.90;;;;;;5026844;28;20245;-48
2021/01/08 04:45:07;;;;;;;10.27;6.77;;;1.10;99.90;;;;;;5011402;28;20245;-47
2021/01/08 04:47:35;;;;;;;7.97;5.70;;;1.10;99.90;;;;;;5026255;28;20402;-48
2021/01/08 04:50:02;;;;;;;9.87;6.90;;;1.10;99.90;;;;;;5024491;28;20206;-46
2021/01/08 04:52:27;;;;;;;10.03;7.17;;;1.10;99.90;;;;;;5024432;28;20206;-52
2021/01/08 04:54:53;;;;;;;12.20;6.90;;;1.10;99.90;;;;;;5025197;28;20210;-45
2021/01/08 04:57:21;;;;;;;11.73;7.03;;;1.10;99.90;;;;;;5023206;28;20882;-49
2021/01/08 04:59:47;;;;;;;10.13;6.10;;;1.10;99.90;;;;;;5026631;28;20175;-51
2021/01/08 05:02:13;;;;;;;11.97;7.07;;;1.10;99.90;;;;;;5009470;28;20411;-52
2021/01/08 05:04:39;;;;;;;10.47;6.53;;;1.00;99.90;;;;;;5026366;28;20636;-48
2021/01/08 05:07:04;;;;;;;10.87;6.53;;;1.00;99.90;;;;;;5023727;28;20224;-45
2021/01/08 05:09:30;;;;;;;11.90;6.53;;;1.00;99.90;;;;;;5025008;28;20186;-47
2021/01/08 05:11:56;;;;;;;10.93;6.07;;;1.00;99.90;;;;;;5023748;28;20710;-44
2021/01/08 05:14:25;;;;;;;12.03;7.43;;;1.00;99.90;;;;;;5024171;28;20203;-50
2021/01/08 05:16:51;;;;;;;13.23;6.93;;;1.00;99.90;;;;;;5013566;28;20187;-49
2021/01/08 05:19:17;;;;;;;16.90;7.20;;;1.00;99.90;;;;;;5022000;28;20173;-50
2021/01/08 05:21:43;;;;;;;11.23;6.97;;;1.10;99.90;;;;;;5026060;28;20665;-46
2021/01/08 05:24:10;;;;;;;14.60;7.17;;;1.10;99.90;;;;;;5021566;28;20195;-45
2021/01/08 05:26:35;;;;;;;14.60;7.67;;;1.10;99.90;;;;;;5026369;28;20179;-50
2021/01/08 05:29:03;;;;;;;12.43;7.67;;;1.10;99.90;;;;;;5023252;28;20647;-48
2021/01/08 05:31:30;;;;;;;14.47;7.20;;;1.10;99.90;;;;;;5012559;28;20238;-49
2021/01/08 05:33:57;;;;;;;14.57;7.97;;;1.10;99.90;;;;;;5023960;28;20210;-44
2021/01/08 05:36:23;;;;;;;13.87;6.83;;;1.10;99.90;;;;;;5023041;28;20770;-51
2021/01/08 05:38:58;;;;;;;15.57;7.93;;;1.10;99.90;;;;;;5024909;28;20179;-48
2021/01/08 05:41:24;;;;;;;15.10;8.53;;;1.20;99.90;;;;;;5023046;28;20939;-48
2021/01/08 05:43:50;;;;;;;13.80;7.63;;;1.20;99.90;;;;;;5025503;28;20180;-46
2021/01/08 05:46:18;;;;;;;16.00;7.93;;;1.20;99.90;;;;;;5009461;28;24201;-48
2021/01/08 05:48:50;;;;;;;14.53;8.00;;;1.20;99.90;;;;;;5010995;28;20203;-46
2021/01/08 05:51:21;;;;;;;13.20;8.17;;;1.20;99.90;;;;;;5012282;28;20239;-46
2021/01/08 05:53:48;;;;;;;17.80;8.23;;;1.20;99.90;;;;;;5017637;28;20290;-47
2021/01/08 05:56:18;;;;;;;14.10;7.77;;;1.20;99.90;;;;;;5015185;28;20191;-46
2021/01/08 05:58:45;;;;;;;13.47;7.80;;;1.20;99.90;;;;;;5023559;28;20174;-48
2021/01/08 06:01:11;;;;;;;15.00;8.10;;;1.30;99.90;;;;;;5021380;28;20190;-44
2021/01/08 06:03:38;;;;;;;13.37;8.00;;;1.20;99.90;;;;;;5012885;28;20715;-48
2021/01/08 06:06:05;;;;;;;12.47;7.87;;;1.20;99.90;;;;;;5025608;28;20229;-46
2021/01/08 06:08:42;;;;;;;14.17;8.63;;;1.20;99.90;;;;;;5017123;28;20461;-47
2021/01/08 06:11:14;;;;;;;13.77;7.97;;;1.20;99.90;;;;;;5016439;28;20254;-45
2021/01/08 06:13:40;;;;;;;16.90;8.63;;;1.20;99.90;;;;;;5022912;28;20191;-46
2021/01/08 06:16:06;;;;;;;15.27;8.27;;;1.20;99.90;;;;;;5025163;28;20536;-48
2021/01/08 06:18:37;;;;;;;15.33;8.30;;;1.30;99.90;;;;;;5008587;28;20187;-50
2021/01/08 06:21:11;;;;;;;13.57;8.10;;;1.30;99.90;;;;;;5025382;28;20222;-48
2021/01/08 06:23:38;;;;;;;12.83;8.47;;;1.30;99.90;;;;;;5021652;28;20195;-48
2021/01/08 06:26:06;;;;;;;19.27;8.83;;;1.30;99.90;;;;;;5015947;28;20188;-50
2021/01/08 06:28:40;;;;;;;12.80;7.90;;;1.30;99.90;;;;;;5017217;28;20213;-52
2021/01/08 06:31:10;;;;;;;13.40;8.27;;;1.30;99.90;;;;;;5024757;28;20737;-47
2021/01/08 06:33:38;;;;;;;14.07;8.33;;;1.30;99.90;;;;;;5011383;28;20906;-48
2021/01/08 06:36:19;;;;;;;18.43;8.40;;;1.30;99.90;;;;;;5024113;28;20211;-53
2021/01/08 06:38:53;;;;;;;13.93;8.13;;;1.40;99.90;;;;;;5023106;28;20221;-52
2021/01/08 06:41:18;;;;;;;15.73;8.77;;;1.40;99.90;;;;;;5013560;28;20215;-45
2021/01/08 06:43:47;;;;;;;13.67;8.77;;;1.30;99.90;;;;;;5019458;28;20190;-49
2021/01/08 06:46:25;;;;;;;17.67;8.87;;;1.40;99.90;;;;;;5019633;28;20663;-47
2021/01/08 06:48:56;;;;;;;15.87;9.27;;;1.40;99.90;;;;;;5023619;28;20774;-50
2021/01/08 06:51:27;;;;;;;15.77;9.43;;;1.30;99.90;;;;;;5022126;28;20229;-46
2021/01/08 06:53:55;;;;;;;16.83;8.90;;;1.30;99.90;;;;;;5024268;28;20234;-49
2021/01/08 06:56:28;;;;;;;14.13;8.67;;;1.40;99.90;;;;;;5014748;28;20552;-46
2021/01/08 06:58:55;;;;;;;16.57;8.87;;;1.40;99.90;;;;;;5014561;28;20679;-47
2021/01/08 07:01:31;;;;;;;14.53;8.80;;;1.40;99.90;;;;;;5021527;28;20253;-47
2021/01/08 07:03:57;;;;;;;17.97;9.13;;;1.40;99.90;;;;;;5011419;28;20184;-50
2021/01/08 07:06:22;;;;;;;14.53;8.60;;;1.40;99.90;;;;;;5020099;28;20191;-50
2021/01/08 07:08:48;;;;;;;17.93;9.03;;;1.40;99.90;;;;;;5019179;28;20538;-47
2021/01/08 07:11:22;;;;;;;16.97;9.50;;;1.40;99.90;;;;;;5019947;28;20219;-49
2021/01/08 07:13:47;;;;;;;16.47;8.77;;;1.40;99.90;;;;;;5012130;28;20560;-46
2021/01/08 07:16:20;;;;;;;19.47;9.83;;;1.40;99.90;;;;;;5024055;28;20181;-50
2021/01/08 07:18:46;;;;;;;14.60;8.97;;;1.40;99.90;;;;;;5008599;28;20274;-45
2021/01/08 07:21:23;;;;;;;15.43;9.50;;;1.40;99.90;;;;;;5019000;28;20294;-50
2021/01/08 07:23:51;;;;;;;15.50;9.40;;;1.40;99.90;;;;;;5016461;28;20206;-46
2021/01/08 07:26:18;;;;;;;17.87;9.20;;;1.40;99.90;;;;;;5020079;28;20342;-53
2021/01/08 07:28:54;;;;;;;15.17;8.63;;;1.40;99.90;;;;;;5014802;28;20269;-46
2021/01/08 07:31:40;;;;;;;16.97;9.20;;;1.40;99.90;;;;;;5004050;28;20277;-48
2021/01/08 07:34:08;;;;;;;14.43;9.03;;;1.40;99.90;;;;;;5001609;28;20918;-48
2021/01/08 07:36:34;;;;;;;19.70;9.77;;;1.40;99.90;;;;;;5023066;28;20187;-47
2021/01/08 07:39:03;;;;;;;18.23;9.17;;;1.40;99.90;;;;;;5020045;28;20201;-48
2021/01/08 07:41:36;;;;;;;15.33;8.97;;;1.50;99.90;;;;;;5018363;28;20220;-46
2021/01/08 07:44:04;;;;;;;19.27;9.83;;;1.50;99.90;;;;;;5011566;28;20210;-48
2021/01/08 07:46:32;;;;;;;15.23;9.43;;;1.50;99.90;;;;;;5022483;28;20652;-48
2021/01/08 07:49:00;;;;;;;17.33;10.07;;;1.50;99.90;;;;;;5007739;28;20227;-52
2021/01/08 07:51:44;;;;;;;16.03;9.67;;;1.50;99.90;;;;;;5023556;28;20196;-49
2021/01/08 07:54:10;;;;;;;16.30;10.17;;;1.50;99.90;;;;;;5017709;28;20301;-48
2021/01/08 07:56:36;;;;;;;15.70;9.93;;;1.50;99.90;;;;;;5018617;28;20663;-45
2021/01/08 07:59:06;;;;;;;16.77;8.87;;;1.50;99.90;;;;;;5014977;28;20191;-50
2021/01/08 08:01:32;;;;;;;18.27;10.20;;;1.50;99.90;;;;;;5019377;28;20223;-46
2021/01/08 08:04:08;;;;;;;22.70;10.97;;;1.50;99.90;;;;;;5020077;28;20244;-47
2021/01/08 08:06:36;;;;;;;16.10;9.43;;;1.50;99.90;;;;;;5010643;28;20202;-46
2021/01/08 08:09:04;;;;;;;22.00;10.73;;;1.50;99.90;;;;;;5020734;28;21029;-52
2021/01/08 08:11:33;;;;;;;19.40;10.40;;;1.50;99.90;;;;;;5024165;28;20735;-49
2021/01/08 08:13:59;;;;;;;20.53;10.63;;;1.50;99.90;;;;;;5014516;28;20225;-48
2021/01/08 08:16:39;;;;;;;17.00;10.50;;;1.50;99.90;;;;;;5023238;28;20198;-49
2021/01/08 08:19:06;;;;;;;24.53;12.57;;;1.50;99.90;;;;;;5024863;28;20867;-46
2021/01/08 08:21:32;;;;;;;19.63;10.00;;;1.60;99.90;;;;;;5014457;28;20344;-46
2021/01/08 08:23:59;;;;;;;19.47;10.33;;;1.50;99.90;;;;;;5023421;28;20430;-49
2021/01/08 08:26:27;;;;;;;20.30;10.67;;;1.60;99.90;;;;;;5025927;28;20188;-47
2021/01/08 08:28:59;;;;;;;19.80;10.47;;;1.50;99.90;;;;;;5016572;28;20927;-50
2021/01/08 08:31:28;;;;;;;18.60;9.90;;;1.50;99.90;;;;;;5020407;28;20218;-50
2021/01/08 08:33:54;;;;;;;23.43;10.47;;;1.60;99.90;;;;;;5023121;28;20272;-51
2021/01/08 08:36:25;;;;;;;18.03;10.10;;;1.50;99.90;;;;;;5014157;28;20191;-50
2021/01/08 08:39:07;;;;;;;18.33;10.13;;;1.50;99.90;;;;;;5020926;28;20187;-47
2021/01/08 08:41:35;;;;;;;16.80;9.93;;;1.60;99.90;;;;;;5022334;28;20560;-50
2021/01/08 08:44:08;;;;;;;17.60;9.93;;;1.60;99.90;;;;;;5013689;28;20305;-52
2021/01/08 08:46:48;;;;;;;20.43;10.47;;;1.50;99.90;;;;;;5021629;28;20241;-48
2021/01/08 08:49:18;;;;;;;21.17;11.00;;;1.60;99.90;;;;;;5018363;28;20172;-53
2021/01/08 08:51:47;;;;;;;17.57;9.77;;;1.60;99.90;;;;;;5007612;28;20672;-46
2021/01/08 08:54:13;;;;;;;19.23;9.90;;;1.50;99.90;;;;;;5020090;28;20219;-49
2021/01/08 08:56:48;;;;;;;20.30;10.67;;;1.60;99.90;;;;;;5026209;28;20548;-46
2021/01/08 08:59:14;;;;;;;17.93;10.67;;;1.60;99.90;;;;;;5015387;28;20248;-50
2021/01/08 09:01:41;;;;;;;20.50;9.87;;;1.60;99.90;;;;;;5019774;28;20258;-47
2021/01/08 09:04:08;;;;;;;19.63;10.50;;;1.60;99.90;;;;;;5011148;28;20182;-52
2021/01/08 09:06:41;;;;;;;15.97;9.93;;;1.60;99.90;;;;;;5021874;28;20561;-50
2021/01/08 09:09:14;;;;;;;19.57;10.07;;;1.60;99.90;;;;;;5017985;28;20191;-53
2021/01/08 09:11:49;;;;;;;18.53;10.33;;;1.60;99.90;;;;;;5023766;28;20214;-48
2021/01/08 09:14:18;;;;;;;20.97;10.67;;;1.60;99.90;;;;;;5005157;28;20210;-53
2021/01/08 09:16:49;;;;;;;17.63;9.97;;;1.60;99.90;;;;;;5002025;28;20177;-49
2021/01/08 09:19:24;;;;;;;16.53;9.63;;;1.60;99.90;;;;;;5023974;28;20538;-50
2021/01/08 09:21:51;;;;;;;15.97;10.17;;;1.60;99.90;;;;;;5022168;28;20202;-50
2021/01/08 09:24:28;;;;;;;15.67;9.17;;;1.60;99.90;;;;;;5014776;28;20229;-51
2021/01/08 09:27:00;;;;;;;19.40;8.90;;;1.60;99.90;;;;;;5022867;28;20487;-52
2021/01/08 09:29:28;;;;;;;17.33;10.10;;;1.60;99.90;;;;;;5027308;28;20175;-52
2021/01/08 09:31:55;;;;;;;15.23;8.90;;;1.60;99.90;;;;;;5023231;28;20195;-51
2021/01/08 09:34:23;;;;;;;15.20;8.90;;;1.50;99.90;;;;;;5023088;28;20227;-51
2021/01/08 09:36:49;;;;;;;17.00;8.33;;;1.50;99.90;;;;;;5023602;28;20258;-47
2021/01/08 09:39:15;;;;;;;17.80;10.67;;;1.50;99.90;;;;;;5014449;28;20231;-51
2021/01/08 09:41:42;;;;;;;17.43;9.47;;;1.50;99.90;;;;;;5021290;28;20195;-48
2021/01/08 09:44:09;;;;;;;18.43;9.10;;;1.50;99.90;;;;;;5023771;28;20219;-51
2021/01/08 09:46:50;;;;;;;16.10;9.53;;;1.50;99.90;;;;;;5026070;28;20241;-48
2021/01/08 09:49:15;;;;;;;18.03;9.10;;;1.60;99.90;;;;;;5022752;28;20206;-50
2021/01/08 09:51:41;;;;;;;17.23;9.67;;;1.60;99.90;;;;;;5024680;28;20199;-47
2021/01/08 09:54:06;;;;;;;16.37;9.50;;;1.50;99.90;;;;;;5012696;28;20227;-50
2021/01/08 09:56:32;;;;;;;15.60;9.40;;;1.60;99.90;;;;;;5026812;28;20663;-46
2021/01/08 09:59:17;;;;;;;13.63;9.47;;;1.50;99.90;;;;;;5022665;28;20179;-54
2021/01/08 10:01:54;;;;;;;17.23;10.97;;;1.50;99.90;;;;;;5024688;28;20757;-46
2021/01/08 10:04:25;;;;;;;14.37;8.93;;;1.50;99.90;;;;;;5022761;28;20187;-49
2021/01/08 10:07:02;;;;;;;12.60;8.57;;;1.50;99.90;;;;;;5022136;28;20316;-47
2021/01/08 10:09:51;;;;;;;18.63;9.53;;;1.50;99.90;;;;;;5013954;28;20206;-55
2021/01/08 10:12:18;;;;;;;19.57;10.53;;;1.50;99.90;;;;;;5019110;28;20203;-53
2021/01/08 10:14:44;;;;;;;14.10;9.07;;;1.50;99.90;;;;;;5023751;28;20668;-49
2021/01/08 10:17:15;;;;;;;15.33;8.90;;;1.50;99.90;;;;;;5025165;28;20167;-52
2021/01/08 10:19:42;;;;;;;18.13;9.50;;;1.50;99.90;;;;;;5022545;28;20171;-50
2021/01/08 10:22:08;;;;;;;21.50;10.10;;;1.60;99.90;;;;;;5021704;28;20203;-50
2021/01/08 10:24:34;;;;;;;16.47;9.90;;;1.50;99.90;;;;;;5023189;28;20552;-49
2021/01/08 10:26:59;;;;;;;17.63;9.77;;;1.50;99.90;;;;;;5012935;28;20287;-51
2021/01/08 10:29:29;;;;;;;19.60;10.23;;;1.60;99.90;;;;;;5025776;28;20576;-52
2021/01/08 10:31:57;;;;;;;18.53;10.03;;;1.60;99.90;;;;;;5021731;28;20294;-53
2021/01/08 10:34:23;;;;;;;14.80;9.20;;;1.60;99.90;;;;;;5025652;28;20215;-52
2021/01/08 10:36:48;;;;;;;15.63;9.53;;;1.60;99.90;;;;;;5018086;28;20183;-51
2021/01/08 10:39:14;;;;;;;15.37;8.70;;;1.60;99.90;;;;;;5019966;28;20184;-48
2021/01/08 10:41:39;;;;;;;14.57;8.90;;;1.60;99.90;;;;;;5009302;28;20207;-45
2021/01/08 10:44:05;;;;;;;15.23;9.77;;;1.60;99.90;;;;;;5018360;28;20206;-47
2021/01/08 10:46:31;;;;;;;13.97;8.83;;;1.70;99.90;;;;;;5023734;28;20239;-47
2021/01/08 10:48:56;;;;;;;17.07;9.83;;;1.60;99.90;;;;;;5019981;28;20273;-49
2021/01/08 10:51:27;;;;;;;12.63;9.17;;;1.60;99.90;;;;;;5019771;28;20219;-45
2021/01/08 10:53:53;;;;;;;12.20;8.93;;;1.60;99.90;;;;;;5020192;28;20298;-50
2021/01/08 10:56:29;;;;;;;14.27;8.43;;;1.60;99.90;;;;;;5023301;28;20827;-46
2021/01/08 10:58:54;;;;;;;14.63;8.50;;;1.60;99.90;;;;;;5011579;28;20226;-46
2021/01/08 11:01:20;;;;;;;19.97;9.40;;;1.60;99.90;;;;;;5018570;28;20242;-46
2021/01/08 11:03:45;;;;;;;12.93;8.73;;;1.60;99.90;;;;;;5019313;28;20864;-46
2021/01/08 11:06:20;;;;;;;15.90;9.27;;;1.60;99.90;;;;;;5023465;28;20194;-49
2021/01/08 11:08:46;;;;;;;15.17;9.20;;;1.60;99.90;;;;;;5015393;28;20193;-47
2021/01/08 11:11:14;;;;;;;14.93;9.03;;;1.60;99.90;;;;;;5022255;28;20215;-47
2021/01/08 11:13:40;;;;;;;15.57;8.57;;;1.60;99.90;;;;;;5008078;28;20211;-54
2021/01/08 11:16:06;;;;;;;15.70;9.40;;;1.60;99.90;;;;;;5017358;28;20198;-49
2021/01/08 11:18:32;;;;;;;13.40;8.20;;;1.60;99.90;;;;;;5016892;28;20251;-51
2021/01/08 11:20:57;;;;;;;16.30;8.93;;;1.70;99.90;;;;;;5020072;28;20186;-49
2021/01/08 11:23:23;;;;;;;14.80;8.67;;;1.70;99.90;;;;;;5016048;28;20223;-45
2021/01/08 11:25:48;;;;;;;15.40;9.37;;;1.70;99.90;;;;;;5016457;28;20188;-47
2021/01/08 11:28:13;;;;;;;13.00;8.70;;;1.70;99.90;;;;;;5006123;28;20669;-47
2021/01/08 11:30:39;;;;;;;17.33;9.50;;;1.70;99.90;;;;;;5016670;28;20187;-55
2021/01/08 11:33:05;;;;;;;13.10;8.07;;;1.70;99.90;;;;;;5017256;28;20218;-45
2021/01/08 11:35:30;;;;;;;13.87;8.10;;;1.70;99.90;;;;;;5021641;28;20210;-52
2021/01/08 11:37:56;;;;;;;15.67;9.00;;;1.70;99.90;;;;;;5020900;28;20175;-49
2021/01/08 11:40:22;;;;;;;12.83;8.53;;;1.70;99.90;;;;;;5018939;28;20196;-45
2021/01/08 11:42:48;;;;;;;13.60;7.20;;;1.70;99.90;;;;;;5018981;28;20356;-46
2021/01/08 11:45:14;;;;;;;14.83;8.67;;;1.70;99.90;;;;;;5010606;28;20651;-45
2021/01/08 11:47:39;;;;;;;13.07;8.40;;;1.70;99.90;;;;;;5016508;28;20197;-52
2021/01/08 11:50:05;;;;;;;13.87;8.37;;;1.70;99.90;;;;;;5026054;28;20191;-45
2021/01/08 11:52:31;;;;;;;13.43;8.47;;;1.70;99.90;;;;;;5025963;28;20210;-52
2021/01/08 11:54:57;;;;;;;14.10;7.93;;;1.70;99.90;;;;;;5019747;28;20214;-45
2021/01/08 11:57:22;;;;;;;15.30;9.70;;;1.70;99.90;;;;;;5026595;28;20636;-46
2021/01/08 11:59:50;;;;;;;12.27;8.27;;;1.70;99.90;;;;;;5010303;28;20441;-45
2021/01/08 12:02:16;;;;;;;13.10;8.30;;;1.70;99.90;;;;;;5026717;28;20210;-44
2021/01/08 12:04:41;;;;;;;13.83;9.03;;;1.70;99.90;;;;;;5018468;28;20187;-53
2021/01/08 12:07:07;;;;;;;16.33;9.03;;;1.70;99.90;;;;;;5026094;28;20172;-49
2021/01/08 12:09:33;;;;;;;14.60;9.47;;;1.70;99.90;;;;;;5024956;28;20183;-53
2021/01/08 12:12:03;;;;;;;12.90;9.07;;;1.70;99.90;;;;;;5020155;28;20206;-48
2021/01/08 12:14:30;;;;;;;14.00;8.23;;;1.70;99.90;;;;;;5013356;28;20355;-53
2021/01/08 12:17:05;;;;;;;12.83;7.63;;;1.70;99.90;;;;;;5023898;28;20171;-45
2021/01/08 12:19:32;;;;;;;10.87;7.90;;;1.70;99.90;;;;;;5020237;28;20194;-50
2021/01/08 12:21:58;;;;;;;12.77;8.50;;;1.70;99.90;;;;;;5024266;28;20183;-45
2021/01/08 12:24:23;;;;;;;13.00;8.30;;;1.70;99.90;;;;;;5026300;28;20191;-47
2021/01/08 12:26:53;;;;;;;16.37;8.80;;;1.80;99.90;;;;;;5017764;28;20908;-45
2021/01/08 12:29:19;;;;;;;12.93;8.00;;;1.80;99.90;;;;;;5022162;28;20188;-45
2021/01/08 12:31:45;;;;;;;13.47;8.23;;;1.80;99.90;;;;;;5009183;28;20204;-47
2021/01/08 12:34:10;;;;;;;15.00;8.07;;;1.80;99.90;;;;;;5021293;28;20622;-45
2021/01/08 12:36:36;;;;;;;11.57;7.27;;;1.90;99.90;;;;;;5022626;28;20187;-54
2021/01/08 12:39:03;;;;;;;12.67;8.23;;;1.80;99.90;;;;;;5024590;28;20172;-45
2021/01/08 12:41:32;;;;;;;10.90;7.73;;;1.80;99.90;;;;;;5023667;28;20703;-51
2021/01/08 12:43:59;;;;;;;14.17;9.10;;;1.80;99.90;;;;;;5013668;28;20222;-46
2021/01/08 12:46:24;;;;;;;10.63;7.83;;;1.80;99.90;;;;;;5011340;28;20215;-46
2021/01/08 12:48:50;;;;;;;12.60;7.67;;;1.80;99.90;;;;;;5016768;28;20272;-47
2021/01/08 12:51:15;;;;;;;13.67;6.97;;;1.80;99.90;;;;;;5026071;28;20192;-44
2021/01/08 12:53:41;;;;;;;15.80;8.33;;;1.70;99.90;;;;;;5022448;28;20211;-54